CheckWX is a tool to help pilots better visualize weather data.  It is not intended as a substitute for an official pre-flight weather briefing.

06:07:28 UTC

GMMW METAR
Nador International Airport
Nador, Morocco
Current

1 hour ago

GMMW 230500Z 22005KT 170V300 CAVOK 15/06 Q1002 NOSIG
Observed
Apr-23 @ 05:00 UTC
Wind
  • 220° at 5 KTS
Visibility
10,000+ meters
Flight Rules
VFR
Cloud Levels
  • Clear skies
Temperature
15°C / 59°F
Dewpoint
C / 43°F
Humidity
55%
Altimeter
29.59" Hg
Pressure
1001.92 hPa
Previous

2 hours ago

GMMW 230400Z 24006KT 170V270 CAVOK 15/06 Q1003 NOSIG
Observed
Apr-23 @ 04:00 UTC
Wind
  • 240° at 6 KTS
Visibility
10,000+ meters
Flight Rules
VFR
Cloud Levels
  • Clear skies
Temperature
15°C / 59°F
Dewpoint
C / 43°F
Humidity
55%
Altimeter
29.62" Hg
Pressure
1002.92 hPa
Previous

3 hours ago

GMMW 230300Z 25007KT CAVOK 15/06 Q1003 NOSIG
Observed
Apr-23 @ 03:00 UTC
Wind
  • 250° at 7 KTS
Visibility
10,000+ meters
Flight Rules
VFR
Cloud Levels
  • Clear skies
Temperature
15°C / 59°F
Dewpoint
C / 43°F
Humidity
55%
Altimeter
29.62" Hg
Pressure
1002.92 hPa